sensor_id;sensor_type;location;lat;lon;timestamp;P1;durP1;ratioP1;P2;durP2;ratioP2
62256;SDS011;48240;52.962;5.790;2023-08-06T03:54:05;2.50;;;2.30;;
62256;SDS011;48240;52.962;5.790;2023-08-06T03:56:31;5.28;;;2.80;;
62256;SDS011;48240;52.962;5.790;2023-08-06T03:58:57;2.72;;;2.25;;
62256;SDS011;48240;52.962;5.790;2023-08-06T04:01:23;3.00;;;2.40;;
62256;SDS011;48240;52.962;5.790;2023-08-06T04:03:49;2.78;;;2.30;;
62256;SDS011;48240;52.962;5.790;2023-08-06T04:06:15;2.90;;;2.40;;
62256;SDS011;48240;52.962;5.790;2023-08-06T04:08:41;2.88;;;2.50;;
62256;SDS011;48240;52.962;5.790;2023-08-06T04:11:07;3.42;;;2.28;;
62256;SDS011;48240;52.962;5.790;2023-08-06T04:13:34;3.55;;;2.60;;
62256;SDS011;48240;52.962;5.790;2023-08-06T04:16:03;3.42;;;2.30;;
62256;SDS011;48240;52.962;5.790;2023-08-06T04:18:29;2.65;;;2.45;;
62256;SDS011;48240;52.962;5.790;2023-08-06T04:20:55;2.58;;;2.38;;
62256;SDS011;48240;52.962;5.790;2023-08-06T04:23:22;3.03;;;2.40;;
62256;SDS011;48240;52.962;5.790;2023-08-06T04:25:49;2.83;;;2.53;;
62256;SDS011;48240;52.962;5.790;2023-08-06T04:28:15;2.83;;;2.42;;
62256;SDS011;48240;52.962;5.790;2023-08-06T04:30:41;5.78;;;2.60;;
62256;SDS011;48240;52.962;5.790;2023-08-06T04:33:07;4.07;;;2.50;;
62256;SDS011;48240;52.962;5.790;2023-08-06T04:35:33;3.00;;;2.47;;
62256;SDS011;48240;52.962;5.790;2023-08-06T04:37:59;3.05;;;2.40;;
62256;SDS011;48240;52.962;5.790;2023-08-06T04:40:25;3.95;;;2.78;;
62256;SDS011;48240;52.962;5.790;2023-08-06T04:42:51;2.50;;;2.30;;
62256;SDS011;48240;52.962;5.790;2023-08-06T04:45:17;2.75;;;2.30;;
62256;SDS011;48240;52.962;5.790;2023-08-06T04:47:43;2.88;;;2.60;;
62256;SDS011;48240;52.962;5.790;2023-08-06T04:50:09;3.70;;;2.88;;
62256;SDS011;48240;52.962;5.790;2023-08-06T04:52:37;3.30;;;2.40;;
62256;SDS011;48240;52.962;5.790;2023-08-06T04:55:03;2.80;;;2.47;;
62256;SDS011;48240;52.962;5.790;2023-08-06T04:57:31;2.85;;;2.38;;
62256;SDS011;48240;52.962;5.790;2023-08-06T04:59:57;2.33;;;2.13;;
62256;SDS011;48240;52.962;5.790;2023-08-06T05:02:23;3.15;;;2.30;;
62256;SDS011;48240;52.962;5.790;2023-08-06T05:04:49;10.52;;;2.92;;
62256;SDS011;48240;52.962;5.790;2023-08-06T05:07:15;2.55;;;2.30;;
62256;SDS011;48240;52.962;5.790;2023-08-06T05:09:41;2.88;;;2.65;;
62256;SDS011;48240;52.962;5.790;2023-08-06T05:12:07;2.63;;;2.30;;
62256;SDS011;48240;52.962;5.790;2023-08-06T05:14:33;2.70;;;2.47;;
62256;SDS011;48240;52.962;5.790;2023-08-06T05:16:59;2.40;;;1.92;;
62256;SDS011;48240;52.962;5.790;2023-08-06T05:19:27;3.13;;;2.35;;
62256;SDS011;48240;52.962;5.790;2023-08-06T05:21:53;2.40;;;2.20;;
62256;SDS011;48240;52.962;5.790;2023-08-06T05:24:19;3.17;;;2.50;;
62256;SDS011;48240;52.962;5.790;2023-08-06T05:26:45;2.50;;;2.30;;
62256;SDS011;48240;52.962;5.790;2023-08-06T05:29:12;3.28;;;2.65;;
62256;SDS011;48240;52.962;5.790;2023-08-06T05:31:38;2.63;;;2.40;;
62256;SDS011;48240;52.962;5.790;2023-08-06T05:34:05;3.33;;;2.65;;
62256;SDS011;48240;52.962;5.790;2023-08-06T05:36:31;2.90;;;2.47;;
62256;SDS011;48240;52.962;5.790;2023-08-06T05:38:57;3.78;;;2.40;;
62256;SDS011;48240;52.962;5.790;2023-08-06T05:41:23;2.63;;;2.10;;
62256;SDS011;48240;52.962;5.790;2023-08-06T05:43:49;3.30;;;2.20;;
62256;SDS011;48240;52.962;5.790;2023-08-06T05:46:15;2.80;;;2.50;;
62256;SDS011;48240;52.962;5.790;2023-08-06T05:48:41;2.38;;;2.17;;
62256;SDS011;48240;52.962;5.790;2023-08-06T05:51:07;2.45;;;2.25;;
62256;SDS011;48240;52.962;5.790;2023-08-06T05:53:33;2.58;;;2.20;;
62256;SDS011;48240;52.962;5.790;2023-08-06T05:55:59;2.40;;;2.17;;
62256;SDS011;48240;52.962;5.790;2023-08-06T05:58:25;2.17;;;1.98;;
62256;SDS011;48240;52.962;5.790;2023-08-06T06:00:54;2.53;;;2.28;;
62256;SDS011;48240;52.962;5.790;2023-08-06T06:03:20;4.30;;;2.08;;
62256;SDS011;48240;52.962;5.790;2023-08-06T06:05:46;2.42;;;1.92;;
62256;SDS011;48240;52.962;5.790;2023-08-06T06:08:12;2.30;;;2.10;;
62256;SDS011;48240;52.962;5.790;2023-08-06T06:10:38;2.97;;;2.08;;
62256;SDS011;48240;52.962;5.790;2023-08-06T06:13:04;2.40;;;2.20;;
62256;SDS011;48240;52.962;5.790;2023-08-06T06:15:30;2.47;;;2.28;;
62256;SDS011;48240;52.962;5.790;2023-08-06T06:17:56;2.30;;;1.98;;
62256;SDS011;48240;52.962;5.790;2023-08-06T06:20:23;2.10;;;1.90;;
62256;SDS011;48240;52.962;5.790;2023-08-06T06:22:49;2.95;;;2.60;;
62256;SDS011;48240;52.962;5.790;2023-08-06T06:25:15;3.42;;;2.30;;
62256;SDS011;48240;52.962;5.790;2023-08-06T06:27:41;2.53;;;2.30;;
62256;SDS011;48240;52.962;5.790;2023-08-06T06:30:07;2.28;;;2.08;;
62256;SDS011;48240;52.962;5.790;2023-08-06T06:32:33;2.72;;;2.13;;
62256;SDS011;48240;52.962;5.790;2023-08-06T06:34:59;2.08;;;1.80;;
62256;SDS011;48240;52.962;5.790;2023-08-06T06:37:26;3.17;;;2.05;;
62256;SDS011;48240;52.962;5.790;2023-08-06T06:39:52;2.50;;;2.28;;
62256;SDS011;48240;52.962;5.790;2023-08-06T06:42:18;2.42;;;2.13;;
62256;SDS011;48240;52.962;5.790;2023-08-06T06:44:44;2.92;;;2.40;;
62256;SDS011;48240;52.962;5.790;2023-08-06T06:47:10;2.70;;;2.45;;
62256;SDS011;48240;52.962;5.790;2023-08-06T06:49:36;2.50;;;2.20;;
62256;SDS011;48240;52.962;5.790;2023-08-06T06:52:02;2.80;;;2.10;;
62256;SDS011;48240;52.962;5.790;2023-08-06T06:54:28;2.80;;;2.28;;
62256;SDS011;48240;52.962;5.790;2023-08-06T06:56:54;2.40;;;2.10;;
62256;SDS011;48240;52.962;5.790;2023-08-06T06:59:20;3.50;;;2.53;;
62256;SDS011;48240;52.962;5.790;2023-08-06T07:01:46;4.45;;;2.10;;
62256;SDS011;48240;52.962;5.790;2023-08-06T07:04:12;2.80;;;2.17;;
62256;SDS011;48240;52.962;5.790;2023-08-06T07:06:38;2.63;;;2.40;;
62256;SDS011;48240;52.962;5.790;2023-08-06T07:09:05;4.18;;;2.10;;
62256;SDS011;48240;52.962;5.790;2023-08-06T07:11:31;3.03;;;2.58;;
62256;SDS011;48240;52.962;5.790;2023-08-06T07:13:57;3.55;;;2.30;;
62256;SDS011;48240;52.962;5.790;2023-08-06T07:16:24;3.25;;;2.50;;
62256;SDS011;48240;52.962;5.790;2023-08-06T07:18:51;2.60;;;2.25;;
62256;SDS011;48240;52.962;5.790;2023-08-06T07:21:17;2.30;;;2.10;;
62256;SDS011;48240;52.962;5.790;2023-08-06T07:23:43;3.72;;;2.30;;
62256;SDS011;48240;52.962;5.790;2023-08-06T07:26:10;3.10;;;2.42;;
62256;SDS011;48240;52.962;5.790;2023-08-06T07:28:36;2.58;;;2.13;;
62256;SDS011;48240;52.962;5.790;2023-08-06T07:31:02;4.00;;;2.60;;
62256;SDS011;48240;52.962;5.790;2023-08-06T07:33:29;4.57;;;2.22;;
62256;SDS011;48240;52.962;5.790;2023-08-06T07:35:55;2.65;;;2.22;;
62256;SDS011;48240;52.962;5.790;2023-08-06T07:38:21;2.22;;;2.00;;
62256;SDS011;48240;52.962;5.790;2023-08-06T07:40:47;2.78;;;2.03;;
62256;SDS011;48240;52.962;5.790;2023-08-06T07:43:13;2.60;;;2.40;;
62256;SDS011;48240;52.962;5.790;2023-08-06T07:45:39;2.40;;;2.20;;
62256;SDS011;48240;52.962;5.790;2023-08-06T07:48:05;2.40;;;2.20;;
62256;SDS011;48240;52.962;5.790;2023-08-06T07:50:31;3.58;;;2.17;;
62256;SDS011;48240;52.962;5.790;2023-08-06T07:52:58;2.78;;;2.35;;
62256;SDS011;48240;52.962;5.790;2023-08-06T07:55:24;2.80;;;2.05;;
62256;SDS011;48240;52.962;5.790;2023-08-06T07:57:50;2.78;;;2.40;;
62256;SDS011;48240;52.962;5.790;2023-08-06T08:00:17;2.58;;;2.38;;
62256;SDS011;48240;52.962;5.790;2023-08-06T08:02:43;2.80;;;2.50;;
62256;SDS011;48240;52.962;5.790;2023-08-06T08:05:09;2.63;;;2.08;;
62256;SDS011;48240;52.962;5.790;2023-08-06T08:07:35;3.90;;;2.45;;
62256;SDS011;48240;52.962;5.790;2023-08-06T08:10:01;2.22;;;2.03;;
62256;SDS011;48240;52.962;5.790;2023-08-06T08:12:28;2.47;;;2.28;;
62256;SDS011;48240;52.962;5.790;2023-08-06T08:14:54;2.45;;;2.20;;
62256;SDS011;48240;52.962;5.790;2023-08-06T08:17:20;3.40;;;2.63;;
62256;SDS011;48240;52.962;5.790;2023-08-06T08:19:46;2.20;;;1.90;;
62256;SDS011;48240;52.962;5.790;2023-08-06T08:22:12;2.20;;;2.03;;
62256;SDS011;48240;52.962;5.790;2023-08-06T08:24:38;2.83;;;2.25;;
62256;SDS011;48240;52.962;5.790;2023-08-06T08:27:04;2.28;;;2.00;;
62256;SDS011;48240;52.962;5.790;2023-08-06T08:29:31;2.42;;;2.10;;
62256;SDS011;48240;52.962;5.790;2023-08-06T08:31:57;2.47;;;2.28;;
62256;SDS011;48240;52.962;5.790;2023-08-06T08:34:23;2.28;;;2.08;;
62256;SDS011;48240;52.962;5.790;2023-08-06T08:36:49;2.35;;;1.90;;
62256;SDS011;48240;52.962;5.790;2023-08-06T08:39:15;2.60;;;2.40;;
62256;SDS011;48240;52.962;5.790;2023-08-06T08:41:41;2.50;;;2.30;;
62256;SDS011;48240;52.962;5.790;2023-08-06T08:44:08;3.92;;;2.20;;
62256;SDS011;48240;52.962;5.790;2023-08-06T08:46:35;4.72;;;2.20;;
62256;SDS011;48240;52.962;5.790;2023-08-06T08:49:02;2.97;;;1.88;;
62256;SDS011;48240;52.962;5.790;2023-08-06T08:51:28;2.70;;;1.98;;
62256;SDS011;48240;52.962;5.790;2023-08-06T08:53:54;2.20;;;2.00;;
62256;SDS011;48240;52.962;5.790;2023-08-06T08:56:22;2.70;;;2.10;;
62256;SDS011;48240;52.962;5.790;2023-08-06T08:58:48;2.38;;;2.08;;
62256;SDS011;48240;52.962;5.790;2023-08-06T09:01:15;3.03;;;2.13;;
62256;SDS011;48240;52.962;5.790;2023-08-06T09:03:42;4.65;;;2.00;;
62256;SDS011;48240;52.962;5.790;2023-08-06T09:06:09;2.22;;;2.00;;
62256;SDS011;48240;52.962;5.790;2023-08-06T09:08:39;3.42;;;1.95;;
62256;SDS011;48240;52.962;5.790;2023-08-06T09:11:07;2.22;;;1.75;;
62256;SDS011;48240;52.962;5.790;2023-08-06T09:13:36;3.17;;;2.10;;
62256;SDS011;48240;52.962;5.790;2023-08-06T09:16:03;2.72;;;2.10;;
62256;SDS011;48240;52.962;5.790;2023-08-06T09:18:30;2.22;;;1.98;;
62256;SDS011;48240;52.962;5.790;2023-08-06T09:20:56;2.20;;;2.00;;
62256;SDS011;48240;52.962;5.790;2023-08-06T09:23:32;2.15;;;1.95;;
62256;SDS011;48240;52.962;5.790;2023-08-06T09:25:58;2.45;;;1.90;;
62256;SDS011;48240;52.962;5.790;2023-08-06T09:28:25;2.05;;;1.80;;
62256;SDS011;48240;52.962;5.790;2023-08-06T09:31:02;2.05;;;1.80;;
62256;SDS011;48240;52.962;5.790;2023-08-06T09:33:29;3.55;;;2.20;;
62256;SDS011;48240;52.962;5.790;2023-08-06T09:35:55;4.40;;;2.10;;
62256;SDS011;48240;52.962;5.790;2023-08-06T09:38:21;2.20;;;1.80;;
62256;SDS011;48240;52.962;5.790;2023-08-06T09:40:47;2.45;;;2.10;;
62256;SDS011;48240;52.962;5.790;2023-08-06T09:43:13;2.95;;;1.80;;
62256;SDS011;48240;52.962;5.790;2023-08-06T09:45:39;1.92;;;1.75;;
62256;SDS011;48240;52.962;5.790;2023-08-06T09:48:06;1.98;;;1.70;;
62256;SDS011;48240;52.962;5.790;2023-08-06T09:50:33;1.70;;;1.58;;
62256;SDS011;48240;52.962;5.790;2023-08-06T09:53:04;1.83;;;1.63;;
62256;SDS011;48240;52.962;5.790;2023-08-06T09:55:30;2.25;;;1.95;;
62256;SDS011;48240;52.962;5.790;2023-08-06T09:57:58;2.95;;;1.80;;
62256;SDS011;48240;52.962;5.790;2023-08-06T10:00:24;8.80;;;2.72;;
62256;SDS011;48240;52.962;5.790;2023-08-06T10:02:52;2.00;;;1.80;;
62256;SDS011;48240;52.962;5.790;2023-08-06T10:05:21;2.33;;;1.70;;
62256;SDS011;48240;52.962;5.790;2023-08-06T10:07:48;2.10;;;1.90;;
62256;SDS011;48240;52.962;5.790;2023-08-06T10:10:15;4.47;;;1.90;;
62256;SDS011;48240;52.962;5.790;2023-08-06T10:12:43;2.80;;;2.00;;
62256;SDS011;48240;52.962;5.790;2023-08-06T10:15:12;1.90;;;1.73;;
62256;SDS011;48240;52.962;5.790;2023-08-06T10:17:38;2.28;;;1.70;;
62256;SDS011;48240;52.962;5.790;2023-08-06T10:20:05;5.75;;;1.80;;
62256;SDS011;48240;52.962;5.790;2023-08-06T10:22:33;2.00;;;1.77;;
62256;SDS011;48240;52.962;5.790;2023-08-06T10:25:00;5.05;;;2.05;;
62256;SDS011;48240;52.962;5.790;2023-08-06T10:32:46;2.00;;;1.80;;
62256;SDS011;48240;52.962;5.790;2023-08-06T10:35:37;2.70;;;1.95;;
62256;SDS011;48240;52.962;5.790;2023-08-06T10:38:09;2.38;;;1.95;;
62256;SDS011;48240;52.962;5.790;2023-08-06T10:40:36;4.10;;;2.00;;
62256;SDS011;48240;52.962;5.790;2023-08-06T10:43:02;2.30;;;2.10;;
62256;SDS011;48240;52.962;5.790;2023-08-06T10:45:29;4.38;;;2.40;;
62256;SDS011;48240;52.962;5.790;2023-08-06T10:47:56;3.15;;;2.20;;
62256;SDS011;48240;52.962;5.790;2023-08-06T10:50:25;3.55;;;1.95;;
62256;SDS011;48240;52.962;5.790;2023-08-06T10:52:51;3.03;;;2.08;;
62256;SDS011;48240;52.962;5.790;2023-08-06T10:55:27;2.78;;;2.20;;
62256;SDS011;48240;52.962;5.790;2023-08-06T10:57:54;4.55;;;1.90;;
62256;SDS011;48240;52.962;5.790;2023-08-06T11:00:21;3.03;;;2.03;;
62256;SDS011;48240;52.962;5.790;2023-08-06T11:02:48;2.45;;;2.00;;
62256;SDS011;48240;52.962;5.790;2023-08-06T11:05:14;2.40;;;2.15;;
62256;SDS011;48240;52.962;5.790;2023-08-06T11:07:41;2.28;;;2.00;;
62256;SDS011;48240;52.962;5.790;2023-08-06T11:10:09;4.55;;;2.67;;
62256;SDS011;48240;52.962;5.790;2023-08-06T11:12:36;3.58;;;2.38;;
62256;SDS011;48240;52.962;5.790;2023-08-06T11:15:02;2.47;;;2.25;;
62256;SDS011;48240;52.962;5.790;2023-08-06T11:17:29;2.90;;;2.35;;
62256;SDS011;48240;52.962;5.790;2023-08-06T11:19:55;7.43;;;2.40;;
62256;SDS011;48240;52.962;5.790;2023-08-06T11:22:21;4.68;;;2.22;;
62256;SDS011;48240;52.962;5.790;2023-08-06T11:24:48;4.72;;;2.15;;
62256;SDS011;48240;52.962;5.790;2023-08-06T11:27:14;2.40;;;2.15;;
62256;SDS011;48240;52.962;5.790;2023-08-06T11:29:41;6.82;;;2.60;;
62256;SDS011;48240;52.962;5.790;2023-08-06T11:32:08;6.32;;;2.00;;
62256;SDS011;48240;52.962;5.790;2023-08-06T11:34:34;4.35;;;2.40;;
62256;SDS011;48240;52.962;5.790;2023-08-06T11:37:00;5.05;;;2.30;;
62256;SDS011;48240;52.962;5.790;2023-08-06T11:39:30;3.72;;;2.20;;
62256;SDS011;48240;52.962;5.790;2023-08-06T11:41:56;3.88;;;2.25;;
62256;SDS011;48240;52.962;5.790;2023-08-06T11:44:22;3.85;;;2.45;;
62256;SDS011;48240;52.962;5.790;2023-08-06T11:46:53;4.07;;;2.35;;
62256;SDS011;48240;52.962;5.790;2023-08-06T11:51:49;3.50;;;2.17;;
62256;SDS011;48240;52.962;5.790;2023-08-06T11:54:15;4.38;;;2.67;;
62256;SDS011;48240;52.962;5.790;2023-08-06T11:56:41;4.00;;;2.35;;
62256;SDS011;48240;52.962;5.790;2023-08-06T11:59:08;4.35;;;2.33;;
62256;SDS011;48240;52.962;5.790;2023-08-06T12:01:35;4.95;;;2.53;;
62256;SDS011;48240;52.962;5.790;2023-08-06T12:04:01;3.33;;;2.13;;
62256;SDS011;48240;52.962;5.790;2023-08-06T12:06:27;3.20;;;2.40;;
62256;SDS011;48240;52.962;5.790;2023-08-06T12:08:53;6.00;;;2.40;;
62256;SDS011;48240;52.962;5.790;2023-08-06T12:11:23;4.03;;;2.40;;
62256;SDS011;48240;52.962;5.790;2023-08-06T12:13:52;8.70;;;2.40;;
62256;SDS011;48240;52.962;5.790;2023-08-06T12:16:18;3.90;;;2.67;;
62256;SDS011;48240;52.962;5.790;2023-08-06T12:18:45;2.53;;;2.33;;
62256;SDS011;48240;52.962;5.790;2023-08-06T12:21:13;3.20;;;2.38;;
62256;SDS011;48240;52.962;5.790;2023-08-06T12:23:39;6.40;;;2.95;;
62256;SDS011;48240;52.962;5.790;2023-08-06T12:26:05;7.90;;;2.45;;
62256;SDS011;48240;52.962;5.790;2023-08-06T12:28:31;2.83;;;2.13;;
62256;SDS011;48240;52.962;5.790;2023-08-06T12:30:57;3.03;;;2.33;;
62256;SDS011;48240;52.962;5.790;2023-08-06T12:33:23;5.20;;;2.90;;
62256;SDS011;48240;52.962;5.790;2023-08-06T12:35:50;4.47;;;2.33;;
62256;SDS011;48240;52.962;5.790;2023-08-06T12:38:19;3.63;;;2.53;;
62256;SDS011;48240;52.962;5.790;2023-08-06T12:40:45;3.10;;;2.40;;
62256;SDS011;48240;52.962;5.790;2023-08-06T12:43:11;5.10;;;2.58;;
62256;SDS011;48240;52.962;5.790;2023-08-06T12:45:37;4.78;;;2.90;;
62256;SDS011;48240;52.962;5.790;2023-08-06T12:48:03;5.97;;;2.83;;
62256;SDS011;48240;52.962;5.790;2023-08-06T12:50:29;4.68;;;2.50;;
62256;SDS011;48240;52.962;5.790;2023-08-06T12:52:57;8.55;;;2.60;;
62256;SDS011;48240;52.962;5.790;2023-08-06T12:55:23;2.97;;;2.40;;
62256;SDS011;48240;52.962;5.790;2023-08-06T12:57:49;4.80;;;2.40;;
62256;SDS011;48240;52.962;5.790;2023-08-06T13:00:16;3.92;;;2.45;;
62256;SDS011;48240;52.962;5.790;2023-08-06T13:02:42;6.13;;;2.72;;
62256;SDS011;48240;52.962;5.790;2023-08-06T13:05:08;3.83;;;2.47;;
62256;SDS011;48240;52.962;5.790;2023-08-06T13:07:35;4.15;;;2.67;;
62256;SDS011;48240;52.962;5.790;2023-08-06T13:10:01;4.13;;;2.55;;
62256;SDS011;48240;52.962;5.790;2023-08-06T13:12:27;5.53;;;2.67;;
62256;SDS011;48240;52.962;5.790;2023-08-06T13:14:53;4.22;;;2.15;;
62256;SDS011;48240;52.962;5.790;2023-08-06T13:17:22;4.25;;;2.75;;
62256;SDS011;48240;52.962;5.790;2023-08-06T13:19:48;5.00;;;2.45;;
62256;SDS011;48240;52.962;5.790;2023-08-06T13:22:14;3.50;;;2.40;;
62256;SDS011;48240;52.962;5.790;2023-08-06T13:24:40;3.63;;;2.78;;
62256;SDS011;48240;52.962;5.790;2023-08-06T13:27:06;3.47;;;2.35;;
62256;SDS011;48240;52.962;5.790;2023-08-06T13:29:34;4.97;;;2.70;;
62256;SDS011;48240;52.962;5.790;2023-08-06T13:32:00;3.63;;;2.22;;
62256;SDS011;48240;52.962;5.790;2023-08-06T13:34:26;5.22;;;2.50;;
62256;SDS011;48240;52.962;5.790;2023-08-06T13:36:53;3.50;;;2.33;;
62256;SDS011;48240;52.962;5.790;2023-08-06T13:39:19;3.40;;;2.20;;
62256;SDS011;48240;52.962;5.790;2023-08-06T13:41:45;3.25;;;2.70;;
62256;SDS011;48240;52.962;5.790;2023-08-06T13:44:11;4.85;;;2.78;;
62256;SDS011;48240;52.962;5.790;2023-08-06T13:46:40;3.58;;;2.30;;
62256;SDS011;48240;52.962;5.790;2023-08-06T13:49:06;3.97;;;2.40;;
62256;SDS011;48240;52.962;5.790;2023-08-06T13:51:32;3.85;;;2.13;;
62256;SDS011;48240;52.962;5.790;2023-08-06T13:54:00;2.78;;;2.20;;
62256;SDS011;48240;52.962;5.790;2023-08-06T13:56:26;3.30;;;2.40;;
62256;SDS011;48240;52.962;5.790;2023-08-06T13:58:54;2.60;;;2.10;;
62256;SDS011;48240;52.962;5.790;2023-08-06T14:01:20;2.53;;;2.00;;
62256;SDS011;48240;52.962;5.790;2023-08-06T14:03:46;3.72;;;2.15;;
62256;SDS011;48240;52.962;5.790;2023-08-06T14:06:13;3.60;;;2.00;;
62256;SDS011;48240;52.962;5.790;2023-08-06T14:08:39;4.72;;;2.40;;
62256;SDS011;48240;52.962;5.790;2023-08-06T14:11:05;3.38;;;1.90;;
62256;SDS011;48240;52.962;5.790;2023-08-06T14:13:32;5.18;;;2.30;;
62256;SDS011;48240;52.962;5.790;2023-08-06T14:15:58;3.38;;;2.05;;
62256;SDS011;48240;52.962;5.790;2023-08-06T14:18:24;3.72;;;2.28;;
62256;SDS011;48240;52.962;5.790;2023-08-06T14:20:50;5.05;;;1.88;;
62256;SDS011;48240;52.962;5.790;2023-08-06T14:23:16;2.13;;;1.92;;
62256;SDS011;48240;52.962;5.790;2023-08-06T14:25:42;3.97;;;2.30;;
62256;SDS011;48240;52.962;5.790;2023-08-06T14:28:08;4.28;;;2.05;;
62256;SDS011;48240;52.962;5.790;2023-08-06T14:30:34;4.15;;;1.83;;
62256;SDS011;48240;52.962;5.790;2023-08-06T14:33:00;2.38;;;1.63;;
62256;SDS011;48240;52.962;5.790;2023-08-06T14:35:28;4.88;;;2.10;;
62256;SDS011;48240;52.962;5.790;2023-08-06T14:37:54;7.03;;;2.15;;
62256;SDS011;48240;52.962;5.790;2023-08-06T14:40:20;3.08;;;2.10;;
62256;SDS011;48240;52.962;5.790;2023-08-06T14:42:46;13.38;;;2.67;;
62256;SDS011;48240;52.962;5.790;2023-08-06T14:45:12;4.55;;;2.17;;
62256;SDS011;48240;52.962;5.790;2023-08-06T14:47:38;3.85;;;1.90;;
62256;SDS011;48240;52.962;5.790;2023-08-06T14:50:04;7.75;;;2.05;;
62256;SDS011;48240;52.962;5.790;2023-08-06T14:52:31;2.42;;;1.90;;
62256;SDS011;48240;52.962;5.790;2023-08-06T14:54:57;3.58;;;2.10;;
62256;SDS011;48240;52.962;5.790;2023-08-06T14:57:23;2.92;;;1.98;;
62256;SDS011;48240;52.962;5.790;2023-08-06T14:59:52;2.65;;;1.90;;
62256;SDS011;48240;52.962;5.790;2023-08-06T15:02:18;3.60;;;1.90;;
62256;SDS011;48240;52.962;5.790;2023-08-06T15:04:45;2.08;;;1.70;;
62256;SDS011;48240;52.962;5.790;2023-08-06T15:07:11;2.30;;;2.10;;
62256;SDS011;48240;52.962;5.790;2023-08-06T15:09:37;3.20;;;1.80;;
62256;SDS011;48240;52.962;5.790;2023-08-06T15:12:03;6.90;;;2.17;;
62256;SDS011;48240;52.962;5.790;2023-08-06T15:14:29;9.43;;;2.03;;
62256;SDS011;48240;52.962;5.790;2023-08-06T15:16:55;14.45;;;5.13;;
62256;SDS011;48240;52.962;5.790;2023-08-06T15:19:23;26.33;;;10.27;;
62256;SDS011;48240;52.962;5.790;2023-08-06T15:21:49;62.05;;;19.85;;
62256;SDS011;48240;52.962;5.790;2023-08-06T15:24:16;63.28;;;23.75;;
62256;SDS011;48240;52.962;5.790;2023-08-06T15:26:42;114.35;;;38.78;;
62256;SDS011;48240;52.962;5.790;2023-08-06T15:29:08;132.40;;;41.47;;
62256;SDS011;48240;52.962;5.790;2023-08-06T15:31:36;96.65;;;34.60;;
62256;SDS011;48240;52.962;5.790;2023-08-06T15:34:04;93.57;;;32.67;;
62256;SDS011;48240;52.962;5.790;2023-08-06T15:36:30;93.20;;;33.53;;
62256;SDS011;48240;52.962;5.790;2023-08-06T15:38:56;93.68;;;34.70;;
62256;SDS011;48240;52.962;5.790;2023-08-06T15:41:22;99.88;;;34.25;;
62256;SDS011;48240;52.962;5.790;2023-08-06T15:43:48;101.50;;;31.17;;
62256;SDS011;48240;52.962;5.790;2023-08-06T15:46:14;92.60;;;28.77;;
62256;SDS011;48240;52.962;5.790;2023-08-06T15:48:41;64.55;;;24.77;;
62256;SDS011;48240;52.962;5.790;2023-08-06T15:51:07;60.05;;;21.45;;
62256;SDS011;48240;52.962;5.790;2023-08-06T15:53:33;73.05;;;25.17;;
62256;SDS011;48240;52.962;5.790;2023-08-06T15:55:59;41.75;;;17.13;;
62256;SDS011;48240;52.962;5.790;2023-08-06T15:58:25;41.65;;;14.82;;
62256;SDS011;48240;52.962;5.790;2023-08-06T16:00:51;47.92;;;16.45;;
62256;SDS011;48240;52.962;5.790;2023-08-06T16:03:18;45.92;;;15.02;;
62256;SDS011;48240;52.962;5.790;2023-08-06T16:05:44;48.03;;;14.57;;
62256;SDS011;48240;52.962;5.790;2023-08-06T16:08:10;43.67;;;14.25;;
62256;SDS011;48240;52.962;5.790;2023-08-06T16:10:36;34.10;;;11.02;;
62256;SDS011;48240;52.962;5.790;2023-08-06T16:13:02;33.95;;;11.50;;
62256;SDS011;48240;52.962;5.790;2023-08-06T16:15:28;30.88;;;10.73;;
62256;SDS011;48240;52.962;5.790;2023-08-06T16:17:56;33.53;;;11.30;;
62256;SDS011;48240;52.962;5.790;2023-08-06T16:20:22;32.00;;;10.02;;
62256;SDS011;48240;52.962;5.790;2023-08-06T16:22:48;32.95;;;10.38;;
62256;SDS011;48240;52.962;5.790;2023-08-06T16:25:14;28.70;;;9.60;;
62256;SDS011;48240;52.962;5.790;2023-08-06T16:27:40;25.42;;;8.23;;
62256;SDS011;48240;52.962;5.790;2023-08-06T16:30:06;25.98;;;8.82;;
62256;SDS011;48240;52.962;5.790;2023-08-06T16:32:33;26.48;;;8.63;;
62256;SDS011;48240;52.962;5.790;2023-08-06T16:34:59;29.23;;;8.43;;
62256;SDS011;48240;52.962;5.790;2023-08-06T16:37:26;23.67;;;7.85;;
62256;SDS011;48240;52.962;5.790;2023-08-06T16:39:52;22.75;;;6.80;;
62256;SDS011;48240;52.962;5.790;2023-08-06T16:42:18;19.70;;;7.05;;
62256;SDS011;48240;52.962;5.790;2023-08-06T16:44:44;20.63;;;6.70;;
62256;SDS011;48240;52.962;5.790;2023-08-06T16:47:10;15.70;;;5.90;;
62256;SDS011;48240;52.962;5.790;2023-08-06T16:49:37;21.38;;;6.20;;
62256;SDS011;48240;52.962;5.790;2023-08-06T16:52:03;16.00;;;5.20;;
62256;SDS011;48240;52.962;5.790;2023-08-06T16:54:29;14.35;;;5.28;;
62256;SDS011;48240;52.962;5.790;2023-08-06T16:56:55;15.60;;;5.13;;
62256;SDS011;48240;52.962;5.790;2023-08-06T16:59:24;19.42;;;4.82;;
62256;SDS011;48240;52.962;5.790;2023-08-06T17:01:50;18.10;;;5.25;;
62256;SDS011;48240;52.962;5.790;2023-08-06T17:04:16;13.50;;;4.40;;
62256;SDS011;48240;52.962;5.790;2023-08-06T17:06:42;17.33;;;4.50;;
62256;SDS011;48240;52.962;5.790;2023-08-06T17:09:08;14.32;;;4.50;;
62256;SDS011;48240;52.962;5.790;2023-08-06T17:11:34;13.45;;;4.32;;
62256;SDS011;48240;52.962;5.790;2023-08-06T17:14:00;13.27;;;4.10;;
62256;SDS011;48240;52.962;5.790;2023-08-06T17:16:27;14.48;;;4.03;;
62256;SDS011;48240;52.962;5.790;2023-08-06T17:18:53;12.18;;;3.85;;
62256;SDS011;48240;52.962;5.790;2023-08-06T17:21:19;9.85;;;3.70;;
62256;SDS011;48240;52.962;5.790;2023-08-06T17:23:45;8.55;;;3.47;;
62256;SDS011;48240;52.962;5.790;2023-08-06T17:26:11;14.32;;;3.72;;
62256;SDS011;48240;52.962;5.790;2023-08-06T17:28:37;8.60;;;2.45;;
62256;SDS011;48240;52.962;5.790;2023-08-06T17:31:03;11.38;;;2.00;;
62256;SDS011;48240;52.962;5.790;2023-08-06T17:33:32;8.32;;;1.30;;
62256;SDS011;48240;52.962;5.790;2023-08-06T17:35:58;7.60;;;1.25;;
62256;SDS011;48240;52.962;5.790;2023-08-06T17:38:24;6.72;;;1.00;;
62256;SDS011;48240;52.962;5.790;2023-08-06T17:40:53;4.90;;;1.23;;
62256;SDS011;48240;52.962;5.790;2023-08-06T17:43:20;7.03;;;1.77;;
62256;SDS011;48240;52.962;5.790;2023-08-06T17:45:46;8.20;;;2.08;;
62256;SDS011;48240;52.962;5.790;2023-08-06T17:48:12;7.03;;;1.77;;
62256;SDS011;48240;52.962;5.790;2023-08-06T17:50:41;7.20;;;1.60;;
62256;SDS011;48240;52.962;5.790;2023-08-06T17:53:07;7.00;;;1.30;;
62256;SDS011;48240;52.962;5.790;2023-08-06T17:55:33;7.72;;;1.52;;
62256;SDS011;48240;52.962;5.790;2023-08-06T17:57:59;6.97;;;1.45;;
62256;SDS011;48240;52.962;5.790;2023-08-06T18:00:25;6.15;;;1.10;;
62256;SDS011;48240;52.962;5.790;2023-08-06T18:02:51;6.82;;;1.45;;
62256;SDS011;48240;52.962;5.790;2023-08-06T18:05:17;12.43;;;1.10;;
62256;SDS011;48240;52.962;5.790;2023-08-06T18:07:43;5.40;;;1.30;;
62256;SDS011;48240;52.962;5.790;2023-08-06T18:10:10;6.30;;;1.15;;
62256;SDS011;48240;52.962;5.790;2023-08-06T18:12:36;8.15;;;1.35;;
62256;SDS011;48240;52.962;5.790;2023-08-06T18:15:04;3.55;;;1.17;;
62256;SDS011;48240;52.962;5.790;2023-08-06T18:17:30;4.40;;;1.30;;
62256;SDS011;48240;52.962;5.790;2023-08-06T18:19:57;6.00;;;1.13;;
62256;SDS011;48240;52.962;5.790;2023-08-06T18:22:23;5.10;;;1.00;;
62256;SDS011;48240;52.962;5.790;2023-08-06T18:24:49;3.25;;;1.17;;
62256;SDS011;48240;52.962;5.790;2023-08-06T18:27:15;4.13;;;1.20;;
62256;SDS011;48240;52.962;5.790;2023-08-06T18:29:45;3.45;;;1.00;;
62256;SDS011;48240;52.962;5.790;2023-08-06T18:32:12;4.63;;;1.05;;
62256;SDS011;48240;52.962;5.790;2023-08-06T18:34:38;3.67;;;1.00;;
62256;SDS011;48240;52.962;5.790;2023-08-06T18:37:04;5.38;;;1.20;;
62256;SDS011;48240;52.962;5.790;2023-08-06T18:39:30;5.45;;;0.95;;
62256;SDS011;48240;52.962;5.790;2023-08-06T18:41:56;5.80;;;1.20;;